createdAt,value
2018-04-27T00:01:32.776Z,6.0
2018-04-27T00:11:47.585Z,5.9
2018-04-27T00:22:35.119Z,5.8
2018-04-27T00:32:50.117Z,5.8
2018-04-27T00:43:03.866Z,5.7
2018-04-27T00:53:17.854Z,5.6
2018-04-27T01:03:32.322Z,5.6
2018-04-27T01:13:45.974Z,5.5
2018-04-27T01:24:00.421Z,5.5
2018-04-27T01:34:15.019Z,5.3
2018-04-27T01:44:27.511Z,5.3
2018-04-27T01:54:42.682Z,5.1
2018-04-27T02:05:29.748Z,4.9
2018-04-27T02:15:44.823Z,4.9
2018-04-27T02:25:59.569Z,4.8
2018-04-27T02:36:19.803Z,4.7
2018-04-27T02:46:34.195Z,4.6
2018-04-27T02:57:20.924Z,4.4
2018-04-27T03:07:42.554Z,4.4
2018-04-27T03:17:57.030Z,4.4
2018-04-27T03:28:09.342Z,4.3
2018-04-27T03:38:54.989Z,4.3
2018-04-27T03:49:40.988Z,4.3
2018-04-27T04:00:56.217Z,4.3
2018-04-27T04:11:50.651Z,4.3
2018-04-27T04:23:01.615Z,4.2
2018-04-27T04:33:42.840Z,4.2
2018-04-27T04:44:12.441Z,4.2
2018-04-27T04:55:04.949Z,4.1
2018-04-27T05:16:37.511Z,4.0
2018-04-27T05:27:35.902Z,4.1
2018-04-27T05:49:13.944Z,4.5
2018-04-27T05:59:28.499Z,4.5
2018-04-27T06:09:40.716Z,4.8
2018-04-27T06:19:54.890Z,5.1
2018-04-27T06:30:07.389Z,5.5
2018-04-27T06:40:21.287Z,5.9
2018-04-27T06:50:35.377Z,6.4
2018-04-27T07:12:50.320Z,7.6
2018-04-27T07:33:39.623Z,8.9
2018-04-27T07:58:11.995Z,12.9
2018-04-27T08:08:26.476Z,12.9
2018-04-27T08:18:43.311Z,14.7
2018-04-27T08:29:09.360Z,16.1
2018-04-27T08:40:26.758Z,19.1
2018-04-27T08:53:26.216Z,19.7
2018-04-27T09:04:04.980Z,19.7
2018-04-27T09:14:33.868Z,19.8
2018-04-27T09:24:58.640Z,19.5
2018-04-27T09:35:36.361Z,19.3
2018-04-27T09:46:36.180Z,19.2
2018-04-27T09:56:51.279Z,19.8
2018-04-27T10:07:51.269Z,20.4
2018-04-27T10:18:17.519Z,20.6
2018-04-27T10:28:34.806Z,20.9
2018-04-27T10:39:04.767Z,21.2
2018-04-27T11:01:42.414Z,22.6
2018-04-27T11:22:33.313Z,23.0
2018-04-27T11:43:13.189Z,22.9
2018-04-27T11:53:45.674Z,22.9
2018-04-27T12:16:04.931Z,23.2
2018-04-27T12:27:04.235Z,23.2
2018-04-27T13:00:21.612Z,24.6
2018-04-27T13:12:35.834Z,24.9
2018-04-27T13:34:27.277Z,24.9
2018-04-27T14:01:27.710Z,24.1
2018-04-27T14:11:52.489Z,23.5
2018-04-27T14:22:13.889Z,23.3
2018-04-27T14:42:44.047Z,22.9
2018-04-27T14:52:58.624Z,22.8
2018-04-27T15:03:12.504Z,22.7
2018-04-27T15:24:40.137Z,22.3
2018-04-27T15:35:08.554Z,22.1
2018-04-27T15:45:22.547Z,22.0
2018-04-27T16:09:06.149Z,21.5
2018-04-27T16:44:48.187Z,21.2
2018-04-27T21:06:57.381Z,13.1
2018-04-27T22:33:04.011Z,11.2
2018-04-27T22:44:53.856Z,11.2
2018-04-27T23:23:28.961Z,10.4
2018-04-27T23:46:48.668Z,10.2
2018-04-27T23:59:14.173Z,9.8
